createdAt,value
2023-11-06T00:00:24.461Z,17.70
2023-11-06T00:02:56.579Z,17.80
2023-11-06T00:05:28.136Z,17.20
2023-11-06T00:07:59.560Z,16.50
2023-11-06T00:10:30.575Z,17.70
2023-11-06T00:13:01.534Z,17.60
2023-11-06T00:15:32.639Z,17.70
2023-11-06T00:18:03.694Z,18.10
2023-11-06T00:20:34.678Z,18.10
2023-11-06T00:23:05.665Z,18.10
2023-11-06T00:25:37.543Z,18.00
2023-11-06T00:28:08.548Z,17.60
2023-11-06T00:30:39.517Z,17.80
2023-11-06T00:33:10.469Z,18.00
2023-11-06T00:35:41.420Z,17.90
2023-11-06T00:38:12.718Z,17.70
2023-11-06T00:40:43.906Z,17.70
2023-11-06T00:43:14.929Z,17.80
2023-11-06T00:45:46.413Z,17.80
2023-11-06T00:48:17.402Z,18.00
2023-11-06T00:50:48.388Z,17.70
2023-11-06T00:53:19.350Z,17.70
2023-11-06T00:55:52.130Z,17.60
2023-11-06T00:58:23.269Z,17.80
2023-11-06T01:00:54.236Z,17.70
2023-11-06T01:03:25.253Z,17.60
2023-11-06T01:05:56.235Z,17.50
2023-11-06T01:08:27.345Z,17.80
2023-11-06T01:10:58.775Z,17.90
2023-11-06T01:13:30.334Z,17.50
2023-11-06T01:16:01.303Z,17.50
2023-11-06T01:18:32.523Z,17.70
2023-11-06T01:21:03.817Z,17.30
2023-11-06T01:23:35.753Z,17.00
2023-11-06T01:26:06.889Z,16.60
2023-11-06T01:28:37.926Z,16.70
2023-11-06T01:31:08.933Z,16.90
2023-11-06T01:33:40.009Z,16.20
2023-11-06T01:36:12.189Z,16.60
2023-11-06T01:38:43.146Z,16.70
2023-11-06T01:41:14.730Z,16.30
2023-11-06T01:43:45.751Z,16.50
2023-11-06T01:46:16.940Z,16.40
2023-11-06T01:48:48.735Z,16.50
2023-11-06T01:51:19.829Z,17.30
2023-11-06T01:53:50.897Z,17.20
2023-11-06T01:56:22.179Z,16.60
2023-11-06T01:58:54.520Z,17.10
2023-11-06T02:01:27.864Z,16.90
2023-11-06T02:04:00.153Z,16.80
2023-11-06T02:06:32.615Z,17.00
2023-11-06T02:09:04.795Z,17.60
2023-11-06T02:11:35.817Z,16.80
2023-11-06T02:14:06.896Z,17.00
2023-11-06T02:16:37.899Z,17.70
2023-11-06T02:19:09.188Z,17.50
2023-11-06T02:21:46.546Z,17.40
2023-11-06T02:24:24.932Z,17.20
2023-11-06T02:26:59.310Z,17.30
2023-11-06T02:29:30.405Z,16.80
2023-11-06T02:32:01.383Z,17.50
2023-11-06T02:34:32.400Z,17.10
2023-11-06T02:37:03.377Z,17.20
2023-11-06T02:39:35.394Z,17.30
2023-11-06T02:42:07.004Z,17.50
2023-11-06T02:44:37.997Z,17.80
2023-11-06T02:47:10.392Z,17.90
2023-11-06T02:49:41.416Z,17.20
2023-11-06T02:52:13.513Z,17.20
2023-11-06T02:54:45.550Z,17.20
2023-11-06T02:57:16.505Z,17.60
2023-11-06T02:59:47.483Z,17.60
2023-11-06T03:02:18.506Z,17.70
2023-11-06T03:04:49.607Z,16.90
2023-11-06T03:07:20.625Z,17.00
2023-11-06T03:09:51.645Z,17.00
2023-11-06T03:12:22.678Z,16.50
2023-11-06T03:14:53.558Z,17.30
2023-11-06T03:17:24.870Z,17.30
2023-11-06T03:19:55.883Z,17.20
2023-11-06T03:22:26.904Z,16.80
2023-11-06T03:24:57.839Z,17.00
2023-11-06T03:27:28.769Z,16.80
2023-11-06T03:29:59.704Z,17.20
2023-11-06T03:32:31.099Z,16.90
2023-11-06T03:35:02.184Z,16.80
2023-11-06T03:37:33.614Z,16.80
2023-11-06T03:40:05.168Z,17.00
2023-11-06T03:42:36.134Z,17.30
2023-11-06T03:45:07.578Z,17.20
2023-11-06T03:47:38.782Z,17.30
2023-11-06T03:50:10.282Z,17.20
2023-11-06T03:52:41.261Z,16.80
2023-11-06T03:55:14.234Z,17.20
2023-11-06T03:57:45.403Z,17.30
2023-11-06T04:00:17.089Z,17.60
2023-11-06T04:02:48.099Z,17.40
2023-11-06T04:05:19.298Z,17.00
2023-11-06T04:07:50.465Z,17.50
2023-11-06T04:10:21.426Z,17.30
2023-11-06T04:12:55.128Z,17.80
2023-11-06T04:15:26.328Z,17.80
2023-11-06T04:17:57.383Z,17.80
2023-11-06T04:20:28.450Z,17.40
2023-11-06T04:22:59.564Z,17.70
2023-11-06T04:25:30.571Z,17.90
2023-11-06T04:28:01.516Z,18.10
2023-11-06T04:30:33.657Z,18.20
2023-11-06T04:33:04.737Z,17.90
2023-11-06T04:35:35.739Z,18.00
2023-11-06T04:38:07.019Z,17.70
2023-11-06T04:40:38.058Z,17.80
2023-11-06T04:43:09.093Z,17.50
2023-11-06T04:45:40.328Z,18.00
2023-11-06T04:48:11.441Z,18.00
2023-11-06T04:50:42.525Z,17.80
2023-11-06T04:53:13.546Z,17.30
2023-11-06T04:55:44.603Z,17.60
2023-11-06T04:58:15.738Z,17.80
2023-11-06T05:00:47.476Z,17.60
2023-11-06T05:03:18.617Z,17.40
2023-11-06T05:05:49.718Z,17.40
2023-11-06T05:08:20.760Z,17.70
2023-11-06T05:10:51.934Z,17.60
2023-11-06T05:13:24.039Z,17.50
2023-11-06T05:15:55.068Z,17.30
2023-11-06T05:18:26.079Z,17.40
2023-11-06T05:20:57.057Z,17.10
2023-11-06T05:23:28.101Z,17.40
2023-11-06T05:25:59.184Z,17.20
2023-11-06T05:28:30.303Z,17.20
2023-11-06T05:31:01.332Z,17.30
2023-11-06T05:33:32.315Z,17.30
2023-11-06T05:36:04.032Z,17.20
2023-11-06T05:38:35.228Z,16.80
2023-11-06T05:41:06.323Z,16.70
2023-11-06T05:43:38.126Z,16.80
2023-11-06T05:46:09.103Z,17.00
2023-11-06T05:48:40.104Z,16.90
2023-11-06T05:51:11.171Z,16.90
2023-11-06T05:53:42.095Z,16.80
2023-11-06T05:56:13.085Z,17.30
2023-11-06T05:58:44.053Z,18.10
2023-11-06T06:01:15.009Z,18.10
2023-11-06T06:03:48.567Z,17.70
2023-11-06T06:06:19.517Z,17.60
2023-11-06T06:08:50.455Z,17.40
2023-11-06T06:11:21.538Z,17.30
2023-11-06T06:13:52.552Z,17.00
2023-11-06T06:16:23.470Z,16.90
2023-11-06T06:18:54.546Z,17.00
2023-11-06T06:21:25.560Z,16.80
2023-11-06T06:23:56.605Z,16.80
2023-11-06T06:26:28.209Z,16.80
2023-11-06T06:28:59.586Z,16.50
2023-11-06T06:31:30.722Z,16.50
2023-11-06T06:34:02.228Z,16.40
2023-11-06T06:36:33.234Z,16.40
2023-11-06T06:39:07.077Z,16.30
2023-11-06T06:41:38.446Z,16.40
2023-11-06T06:44:09.461Z,16.40
2023-11-06T06:46:40.478Z,16.60
2023-11-06T06:49:12.660Z,16.60
2023-11-06T06:51:43.605Z,16.50
2023-11-06T06:54:14.649Z,16.50
2023-11-06T06:56:47.964Z,16.50
2023-11-06T06:59:18.967Z,16.40
2023-11-06T07:01:50.113Z,16.50
2023-11-06T07:04:21.241Z,16.80
2023-11-06T07:06:53.050Z,16.70
2023-11-06T07:09:26.794Z,16.90
2023-11-06T07:11:57.705Z,17.30
2023-11-06T07:14:32.559Z,16.70
2023-11-06T07:17:06.021Z,17.00
2023-11-06T07:19:37.443Z,17.10
2023-11-06T07:22:08.443Z,17.20
2023-11-06T07:24:40.051Z,17.20
2023-11-06T07:27:11.058Z,17.30
2023-11-06T07:29:42.091Z,17.20
2023-11-06T07:32:13.091Z,17.30
2023-11-06T07:34:44.024Z,17.40
2023-11-06T07:37:15.014Z,17.20
2023-11-06T07:39:46.013Z,17.60
2023-11-06T07:42:17.120Z,17.30
2023-11-06T07:44:48.071Z,17.60
2023-11-06T07:47:19.060Z,17.60
2023-11-06T07:49:49.974Z,17.70
2023-11-06T07:52:20.960Z,17.60
2023-11-06T07:54:52.221Z,17.80
2023-11-06T07:57:23.208Z,17.70
2023-11-06T07:59:54.307Z,17.80
2023-11-06T08:02:25.300Z,18.00
2023-11-06T08:04:57.387Z,17.90
2023-11-06T08:07:28.560Z,17.90
2023-11-06T08:09:59.539Z,17.80
2023-11-06T08:12:30.929Z,18.20
2023-11-06T08:15:02.151Z,17.90
2023-11-06T08:17:33.221Z,17.40
2023-11-06T08:20:05.070Z,18.20
2023-11-06T08:22:36.458Z,18.20
2023-11-06T08:25:10.718Z,18.20
2023-11-06T08:27:41.883Z,18.60
2023-11-06T08:30:13.662Z,18.00
2023-11-06T08:32:45.003Z,18.10
2023-11-06T08:35:16.225Z,18.30
2023-11-06T08:37:47.435Z,18.20
2023-11-06T08:40:18.734Z,18.00
2023-11-06T08:42:49.782Z,17.70
2023-11-06T08:45:20.725Z,18.90
2023-11-06T08:47:52.511Z,19.20
2023-11-06T08:50:23.577Z,19.20
2023-11-06T08:52:54.571Z,19.30
2023-11-06T08:55:25.981Z,18.20
2023-11-06T08:57:57.102Z,18.90
2023-11-06T09:00:28.887Z,18.60
2023-11-06T09:03:01.238Z,19.00
2023-11-06T09:05:32.556Z,18.20
2023-11-06T09:08:04.177Z,18.00
2023-11-06T09:10:35.936Z,18.30
2023-11-06T09:13:06.962Z,18.50
2023-11-06T09:15:40.292Z,18.70
2023-11-06T09:18:11.523Z,18.50
2023-11-06T09:20:43.413Z,18.50
2023-11-06T09:23:14.734Z,18.50
2023-11-06T09:25:45.879Z,19.00
2023-11-06T09:28:17.075Z,18.50
2023-11-06T09:30:48.212Z,19.30
2023-11-06T09:33:20.175Z,18.30
2023-11-06T09:35:51.171Z,18.60
2023-11-06T09:38:22.233Z,18.90
2023-11-06T09:40:53.643Z,18.50
2023-11-06T09:43:25.243Z,18.30
2023-11-06T09:45:58.036Z,18.10
2023-11-06T09:48:32.659Z,18.30
2023-11-06T09:51:11.830Z,18.90
2023-11-06T09:53:46.914Z,19.90
2023-11-06T09:56:20.833Z,20.30
2023-11-06T09:58:53.103Z,20.00
2023-11-06T10:01:29.578Z,19.70
2023-11-06T10:04:01.529Z,19.20
2023-11-06T10:06:34.970Z,19.10
2023-11-06T10:09:26.194Z,19.10
2023-11-06T10:12:17.650Z,19.50
2023-11-06T10:14:48.755Z,19.40
2023-11-06T10:17:24.365Z,19.70
2023-11-06T10:20:15.749Z,19.60
2023-11-06T10:22:57.682Z,20.00
2023-11-06T10:25:29.857Z,20.40
2023-11-06T10:28:00.894Z,21.20
2023-11-06T10:30:32.459Z,20.90
2023-11-06T10:33:15.070Z,21.00
2023-11-06T10:35:46.745Z,21.10
2023-11-06T10:38:34.922Z,20.80
2023-11-06T10:41:26.282Z,20.90
2023-11-06T10:44:03.036Z,21.70
2023-11-06T10:46:36.627Z,21.50
2023-11-06T10:49:35.644Z,22.10
2023-11-06T10:52:08.266Z,20.90
2023-11-06T10:54:41.674Z,20.70
2023-11-06T10:57:17.593Z,21.20
2023-11-06T10:59:49.131Z,21.10
2023-11-06T11:02:45.896Z,21.00
2023-11-06T11:05:19.648Z,20.90
2023-11-06T11:07:52.278Z,20.10
2023-11-06T11:10:30.790Z,21.00
2023-11-06T11:13:04.325Z,20.70
2023-11-06T11:15:35.952Z,20.10
2023-11-06T11:18:12.176Z,19.70
2023-11-06T11:20:58.867Z,20.10
2023-11-06T11:23:48.243Z,20.00
2023-11-06T11:26:19.425Z,20.10
2023-11-06T11:28:56.732Z,20.10
2023-11-06T11:32:09.707Z,19.90
2023-11-06T11:34:40.737Z,19.80
2023-11-06T11:37:30.945Z,20.90
2023-11-06T11:40:05.173Z,21.00
2023-11-06T11:42:36.171Z,21.20
2023-11-06T11:45:11.474Z,20.70
2023-11-06T11:47:48.577Z,20.50
2023-11-06T11:50:28.870Z,20.00
2023-11-06T11:53:00.106Z,19.90
2023-11-06T11:55:39.140Z,20.90
2023-11-06T11:58:16.251Z,21.50
2023-11-06T12:00:47.749Z,20.70
2023-11-06T12:03:18.968Z,21.60
2023-11-06T12:06:00.454Z,20.70
2023-11-06T12:08:32.254Z,21.70
2023-11-06T12:11:11.841Z,22.10
2023-11-06T12:13:42.920Z,21.00
2023-11-06T12:16:13.895Z,20.90
2023-11-06T12:18:45.260Z,20.60
2023-11-06T12:21:16.716Z,20.30
2023-11-06T12:23:47.983Z,20.50
2023-11-06T12:26:20.492Z,20.90
2023-11-06T12:28:53.379Z,20.60
2023-11-06T12:31:26.395Z,20.50
2023-11-06T12:33:57.441Z,20.80
2023-11-06T12:36:31.925Z,20.50
2023-11-06T12:39:03.813Z,19.80
2023-11-06T12:41:40.252Z,20.50
2023-11-06T12:44:18.869Z,20.50
2023-11-06T12:47:01.483Z,21.10
2023-11-06T12:49:53.479Z,20.20
2023-11-06T12:52:28.009Z,19.70
2023-11-06T12:55:00.823Z,20.30
2023-11-06T12:57:33.233Z,20.80
2023-11-06T13:00:06.917Z,20.70
2023-11-06T13:02:38.799Z,20.30
2023-11-06T13:05:11.322Z,20.70
2023-11-06T13:07:45.560Z,20.90
2023-11-06T13:10:17.347Z,19.90
2023-11-06T13:12:49.201Z,19.80
2023-11-06T13:15:20.527Z,20.10
2023-11-06T13:17:54.219Z,20.90
2023-11-06T13:20:31.019Z,20.70
2023-11-06T13:23:02.501Z,20.20
2023-11-06T13:25:34.671Z,20.60
2023-11-06T13:28:06.718Z,20.40
2023-11-06T13:30:39.534Z,21.10
2023-11-06T13:33:10.886Z,20.80
2023-11-06T13:35:42.371Z,21.40
2023-11-06T13:38:13.426Z,21.90
2023-11-06T13:40:46.240Z,22.10
2023-11-06T13:43:20.068Z,20.80
2023-11-06T13:45:51.057Z,20.90
2023-11-06T13:48:22.150Z,20.80
2023-11-06T13:51:00.856Z,20.60
2023-11-06T13:53:34.132Z,20.60
2023-11-06T13:56:21.254Z,20.30
2023-11-06T13:58:53.743Z,20.40
2023-11-06T14:01:37.239Z,19.70
2023-11-06T14:04:08.863Z,20.20
2023-11-06T14:06:39.973Z,20.40
2023-11-06T14:09:29.277Z,19.70
2023-11-06T14:12:01.381Z,20.80
2023-11-06T14:14:32.588Z,20.80
2023-11-06T14:17:06.128Z,20.70
2023-11-06T14:19:39.478Z,19.40
2023-11-06T14:22:10.846Z,20.50
2023-11-06T14:24:42.123Z,20.40
2023-11-06T14:27:14.521Z,20.50
2023-11-06T14:29:45.615Z,20.70
2023-11-06T14:32:16.632Z,20.90
2023-11-06T14:34:48.813Z,20.10
2023-11-06T14:37:19.743Z,20.40
2023-11-06T14:39:50.714Z,21.00
2023-11-06T14:42:21.687Z,21.30
2023-11-06T14:44:52.707Z,20.70
2023-11-06T14:47:25.160Z,20.60
2023-11-06T14:49:56.327Z,19.70
2023-11-06T14:52:27.274Z,20.60
2023-11-06T14:54:58.233Z,21.00
2023-11-06T14:57:29.324Z,21.50
2023-11-06T15:00:02.104Z,21.10
2023-11-06T15:02:33.192Z,20.90
2023-11-06T15:05:06.317Z,20.60
2023-11-06T15:07:43.090Z,20.20
2023-11-06T15:10:15.920Z,20.30
2023-11-06T15:12:50.909Z,20.30
2023-11-06T15:15:22.873Z,21.20
2023-11-06T15:18:02.257Z,20.70
2023-11-06T15:20:33.413Z,19.90
2023-11-06T15:23:04.362Z,20.20
2023-11-06T15:25:35.739Z,20.20
2023-11-06T15:28:09.759Z,21.00
2023-11-06T15:30:42.676Z,20.60
2023-11-06T15:33:13.962Z,20.50
2023-11-06T15:35:45.031Z,20.90
2023-11-06T15:38:15.996Z,21.40
2023-11-06T15:40:47.624Z,21.60
2023-11-06T15:43:18.737Z,20.50
2023-11-06T15:45:50.347Z,21.20
2023-11-06T15:48:21.319Z,21.60
2023-11-06T15:50:53.673Z,21.30
2023-11-06T15:53:24.624Z,20.90
2023-11-06T15:55:55.659Z,21.60
2023-11-06T15:58:28.174Z,21.30
2023-11-06T16:00:59.962Z,20.90
2023-11-06T16:03:31.004Z,21.50
2023-11-06T16:06:03.311Z,21.00
2023-11-06T16:08:34.631Z,20.90
2023-11-06T16:11:16.132Z,20.00
2023-11-06T16:13:49.992Z,21.00
2023-11-06T16:16:21.098Z,21.00
2023-11-06T16:18:52.561Z,21.60
2023-11-06T16:21:23.572Z,21.50
2023-11-06T16:23:54.601Z,21.60
2023-11-06T16:26:25.847Z,21.80
2023-11-06T16:28:56.825Z,21.30
2023-11-06T16:31:47.329Z,21.50
2023-11-06T16:34:27.184Z,21.40
2023-11-06T16:37:06.910Z,21.10
2023-11-06T16:39:37.925Z,21.10
2023-11-06T16:42:08.975Z,20.60
2023-11-06T16:44:43.488Z,18.40
2023-11-06T16:47:15.377Z,18.90
2023-11-06T16:49:46.523Z,18.20
2023-11-06T16:52:17.518Z,18.50
2023-11-06T16:54:49.424Z,19.20
2023-11-06T16:57:20.374Z,19.20
2023-11-06T16:59:51.390Z,19.50
2023-11-06T17:02:22.713Z,19.20
2023-11-06T17:04:56.987Z,19.30
2023-11-06T17:07:28.951Z,19.20
2023-11-06T17:10:00.056Z,19.30
2023-11-06T17:12:31.014Z,19.20
2023-11-06T17:15:02.079Z,19.20
2023-11-06T17:17:33.357Z,19.30
2023-11-06T17:20:12.526Z,18.70
2023-11-06T17:22:43.788Z,18.20
2023-11-06T17:25:14.725Z,18.50
2023-11-06T17:27:45.723Z,19.10
2023-11-06T17:30:16.809Z,18.40
2023-11-06T17:32:47.782Z,17.80
2023-11-06T17:35:19.257Z,17.90
2023-11-06T17:37:50.249Z,17.90
2023-11-06T17:40:21.463Z,18.30
2023-11-06T17:42:52.460Z,17.30
2023-11-06T17:45:23.633Z,17.20
2023-11-06T17:47:55.886Z,17.60
2023-11-06T17:50:27.937Z,17.60
2023-11-06T17:53:00.829Z,17.20
2023-11-06T17:55:33.566Z,17.00
2023-11-06T17:58:05.072Z,17.30
2023-11-06T18:00:36.017Z,16.90
2023-11-06T18:03:10.827Z,17.40
2023-11-06T18:05:42.622Z,16.60
2023-11-06T18:08:13.808Z,17.10
2023-11-06T18:10:44.742Z,16.90
2023-11-06T18:13:16.238Z,16.60
2023-11-06T18:15:47.354Z,16.80
2023-11-06T18:18:18.466Z,16.50
2023-11-06T18:20:50.103Z,16.80
2023-11-06T18:23:21.314Z,17.20
2023-11-06T18:25:53.965Z,17.40
2023-11-06T18:28:27.381Z,17.10
2023-11-06T18:30:58.381Z,17.20
2023-11-06T18:33:29.613Z,16.80
2023-11-06T18:36:00.668Z,17.40
2023-11-06T18:38:31.780Z,17.60
2023-11-06T18:41:02.733Z,17.50
2023-11-06T18:43:34.443Z,17.90
2023-11-06T18:46:06.837Z,17.60
2023-11-06T18:48:37.971Z,17.80
2023-11-06T18:51:09.028Z,17.70
2023-11-06T18:53:40.502Z,17.90
2023-11-06T18:56:11.589Z,18.00
2023-11-06T18:58:42.584Z,18.10
2023-11-06T19:01:13.631Z,17.60
2023-11-06T19:03:45.564Z,17.70
2023-11-06T19:06:23.412Z,17.90
2023-11-06T19:08:59.867Z,18.10
2023-11-06T19:11:31.050Z,17.90
2023-11-06T19:14:02.374Z,17.80
2023-11-06T19:16:33.649Z,17.80
2023-11-06T20:47:00.346Z,18.00
2023-11-06T20:49:31.409Z,18.00
2023-11-06T20:52:03.066Z,17.90
2023-11-06T20:54:34.025Z,17.90
2023-11-06T20:57:05.255Z,17.80
2023-11-06T20:59:36.256Z,17.90
2023-11-06T21:02:08.171Z,17.90
2023-11-06T21:04:40.819Z,17.80
2023-11-06T21:07:13.874Z,17.50
2023-11-06T21:09:44.893Z,17.50
2023-11-06T21:12:16.079Z,17.70
2023-11-06T21:14:47.398Z,18.00
2023-11-06T21:17:18.478Z,17.20
2023-11-06T21:19:49.450Z,17.70
2023-11-06T21:22:20.573Z,17.50
2023-11-06T21:24:52.784Z,17.70
2023-11-06T21:27:24.360Z,16.50
2023-11-06T21:29:55.389Z,17.10
2023-11-06T21:32:26.617Z,17.50
2023-11-06T21:34:57.704Z,17.40
2023-11-06T21:37:28.602Z,17.60
2023-11-06T21:40:02.408Z,17.60
2023-11-06T21:42:33.489Z,17.90
2023-11-06T21:45:04.808Z,17.60
2023-11-06T21:47:37.314Z,17.40
2023-11-06T21:50:08.851Z,17.30
2023-11-06T21:52:41.081Z,17.80
2023-11-06T21:55:13.664Z,17.20
2023-11-06T21:57:45.139Z,17.20
2023-11-06T22:00:17.386Z,16.90
2023-11-06T22:02:48.406Z,16.60
2023-11-06T22:05:21.999Z,16.80
2023-11-06T22:07:53.382Z,17.30
2023-11-06T22:10:25.811Z,17.20
2023-11-06T22:12:57.186Z,17.20
2023-11-06T22:15:28.117Z,17.30
2023-11-06T22:18:02.465Z,17.40
2023-11-06T22:20:34.616Z,16.60
2023-11-06T22:23:05.646Z,17.30
2023-11-06T22:25:36.774Z,16.80
2023-11-06T22:28:07.714Z,16.40
2023-11-06T22:30:38.718Z,16.20
2023-11-06T22:33:09.927Z,16.30
2023-11-06T22:35:41.119Z,16.80
2023-11-06T22:38:12.287Z,17.10
2023-11-06T22:40:43.359Z,17.20
2023-11-06T22:43:14.498Z,17.00
2023-11-06T22:45:45.491Z,17.10
2023-11-06T22:48:16.740Z,17.10
2023-11-06T22:50:48.307Z,16.40
2023-11-06T22:53:21.025Z,16.80
2023-11-06T22:55:52.081Z,17.10
2023-11-06T22:58:23.027Z,17.30
2023-11-06T23:00:57.248Z,17.20
2023-11-06T23:03:28.359Z,17.20
2023-11-06T23:05:59.809Z,17.40
2023-11-06T23:08:31.669Z,17.50
2023-11-06T23:11:04.170Z,17.50
2023-11-06T23:13:35.220Z,17.30
2023-11-06T23:16:09.118Z,17.00
2023-11-06T23:18:40.249Z,17.10
2023-11-06T23:21:11.385Z,17.10
2023-11-06T23:23:43.472Z,17.10
2023-11-06T23:26:16.796Z,16.80
2023-11-06T23:28:47.915Z,17.00
2023-11-06T23:31:19.198Z,17.10
2023-11-06T23:33:50.927Z,17.40
2023-11-06T23:36:21.921Z,17.30
2023-11-06T23:38:52.932Z,17.30
2023-11-06T23:41:36.246Z,17.60
2023-11-06T23:44:13.731Z,17.60
2023-11-06T23:46:44.689Z,17.60
2023-11-06T23:49:15.672Z,17.40
2023-11-06T23:51:46.995Z,17.50
2023-11-06T23:54:17.951Z,17.30
2023-11-06T23:56:49.070Z,17.30
2023-11-06T23:59:21.964Z,16.80
